createdAt,value
2023-01-31T00:01:29.662Z,102653.00
2023-01-31T00:03:58.535Z,102643.00
2023-01-31T00:06:29.528Z,102631.00
2023-01-31T00:08:57.820Z,102640.00
2023-01-31T00:11:26.470Z,102635.00
2023-01-31T00:13:54.016Z,102640.00
2023-01-31T00:16:21.909Z,102634.00
2023-01-31T00:18:49.194Z,102630.00
2023-01-31T00:21:22.034Z,102627.00
2023-01-31T00:23:49.543Z,102622.00
2023-01-31T00:26:36.038Z,102630.00
2023-01-31T00:29:04.879Z,102615.00
2023-01-31T00:31:33.223Z,102620.00
2023-01-31T00:34:00.152Z,102617.00
2023-01-31T00:36:32.978Z,102614.00
2023-01-31T00:39:01.225Z,102613.00
2023-01-31T00:41:30.252Z,102613.00
2023-01-31T00:43:57.657Z,102599.00
2023-01-31T00:46:25.042Z,102600.00
2023-01-31T00:48:52.328Z,102603.00
2023-01-31T00:51:20.198Z,102599.00
2023-01-31T00:53:47.516Z,102604.00
2023-01-31T00:56:18.209Z,102603.00
2023-01-31T00:58:45.195Z,102604.00
2023-01-31T01:01:18.397Z,102607.00
2023-01-31T01:03:45.904Z,102594.00
2023-01-31T01:06:13.936Z,102593.00
2023-01-31T01:08:41.595Z,102587.00
2023-01-31T01:11:32.323Z,102594.00
2023-01-31T01:13:59.796Z,102601.00
2023-01-31T01:16:38.491Z,102612.00
2023-01-31T01:19:06.400Z,102611.00
2023-01-31T01:21:39.167Z,102620.00
2023-01-31T01:24:08.260Z,102616.00
2023-01-31T01:26:35.256Z,102622.00
2023-01-31T01:29:02.872Z,102613.00
2023-01-31T01:31:30.864Z,102615.00
2023-01-31T01:34:12.270Z,102608.00
2023-01-31T01:36:39.906Z,102604.00
2023-01-31T01:39:09.196Z,102604.00
2023-01-31T01:41:37.722Z,102599.00
2023-01-31T01:44:24.400Z,102593.00
2023-01-31T01:46:51.986Z,102584.00
2023-01-31T01:49:37.313Z,102598.00
2023-01-31T01:52:06.957Z,102598.00
2023-01-31T01:54:49.426Z,102593.00
2023-01-31T01:57:20.486Z,102598.00
2023-01-31T01:59:54.718Z,102598.00
2023-01-31T02:02:21.797Z,102589.00
2023-01-31T02:04:50.698Z,102592.00
2023-01-31T02:07:17.362Z,102589.00
2023-01-31T02:10:09.929Z,102581.00
2023-01-31T02:12:36.612Z,102585.00
2023-01-31T02:15:03.825Z,102586.00
2023-01-31T02:17:30.484Z,102592.00
2023-01-31T02:20:09.251Z,102577.00
2023-01-31T02:22:54.444Z,102576.00
2023-01-31T02:25:33.113Z,102574.00
2023-01-31T02:28:24.481Z,102577.00
2023-01-31T02:30:58.978Z,102592.00
2023-01-31T02:33:37.359Z,102579.00
2023-01-31T02:36:41.385Z,102582.00
2023-01-31T02:39:43.354Z,102578.00
2023-01-31T02:42:40.299Z,102580.00
2023-01-31T02:45:21.869Z,102572.00
2023-01-31T02:48:09.023Z,102579.00
2023-01-31T02:50:45.345Z,102576.00
2023-01-31T02:53:21.461Z,102568.00
2023-01-31T02:56:15.101Z,102562.00
2023-01-31T02:58:46.495Z,102555.00
2023-01-31T03:01:17.636Z,102558.00
2023-01-31T03:03:44.823Z,102556.00
2023-01-31T03:06:31.612Z,102554.00
2023-01-31T03:09:25.122Z,102554.00
2023-01-31T03:12:10.204Z,102553.00
2023-01-31T03:14:49.199Z,102569.00
2023-01-31T03:17:57.242Z,102568.00
2023-01-31T03:20:36.544Z,102571.00
2023-01-31T03:23:15.198Z,102565.00
2023-01-31T03:25:43.353Z,102550.00
2023-01-31T03:28:15.711Z,102553.00
2023-01-31T03:30:56.449Z,102547.00
2023-01-31T03:33:45.540Z,102547.00
2023-01-31T03:36:24.323Z,102556.00
2023-01-31T03:38:58.777Z,102552.00
2023-01-31T03:41:37.569Z,102559.00
2023-01-31T03:44:09.058Z,102555.00
2023-01-31T03:46:40.943Z,102546.00
2023-01-31T03:49:11.614Z,102547.00
2023-01-31T03:51:46.245Z,102543.00
2023-01-31T03:54:22.877Z,102551.00
2023-01-31T03:56:56.746Z,102551.00
2023-01-31T03:59:28.952Z,102546.00
2023-01-31T04:01:59.708Z,102543.00
2023-01-31T04:04:32.905Z,102540.00
2023-01-31T04:07:01.274Z,102535.00
2023-01-31T04:09:27.944Z,102527.00
2023-01-31T04:11:54.520Z,102523.00
2023-01-31T04:14:21.190Z,102523.00
2023-01-31T04:16:47.884Z,102518.00
2023-01-31T04:19:14.569Z,102512.00
2023-01-31T04:21:41.270Z,102515.00
2023-01-31T04:24:10.409Z,102504.00
2023-01-31T04:26:37.555Z,102503.00
2023-01-31T04:29:05.107Z,102493.00
2023-01-31T04:31:32.521Z,102495.00
2023-01-31T04:33:59.903Z,102492.00
2023-01-31T04:36:26.940Z,102483.00
2023-01-31T04:38:53.519Z,102498.00
2023-01-31T04:41:20.211Z,102501.00
2023-01-31T04:43:47.080Z,102505.00
2023-01-31T04:46:13.895Z,102502.00
2023-01-31T04:48:41.428Z,102503.00
2023-01-31T04:51:08.617Z,102498.00
2023-01-31T04:53:35.369Z,102496.00
2023-01-31T04:56:02.765Z,102490.00
2023-01-31T04:58:29.828Z,102492.00
2023-01-31T05:00:56.538Z,102490.00
2023-01-31T05:03:23.377Z,102490.00
2023-01-31T05:05:50.761Z,102483.00
2023-01-31T05:08:17.634Z,102479.00
2023-01-31T05:10:44.291Z,102487.00
2023-01-31T05:13:11.622Z,102489.00
2023-01-31T05:15:39.769Z,102487.00
2023-01-31T05:18:06.712Z,102486.00
2023-01-31T05:20:38.375Z,102492.00
2023-01-31T05:23:05.389Z,102486.00
2023-01-31T05:25:32.494Z,102475.00
2023-01-31T05:27:59.184Z,102478.00
2023-01-31T05:30:26.097Z,102466.00
2023-01-31T05:32:53.028Z,102462.00
2023-01-31T05:35:20.065Z,102467.00
2023-01-31T05:37:46.871Z,102465.00
2023-01-31T05:40:15.861Z,102463.00
2023-01-31T05:42:42.907Z,102461.00
2023-01-31T05:45:11.002Z,102453.00
2023-01-31T05:47:37.936Z,102447.00
2023-01-31T05:50:05.015Z,102450.00
2023-01-31T05:52:32.300Z,102445.00
2023-01-31T05:54:59.084Z,102442.00
2023-01-31T05:57:25.752Z,102440.00
2023-01-31T05:59:52.342Z,102434.00
2023-01-31T06:02:19.050Z,102428.00
2023-01-31T06:04:45.821Z,102432.00
2023-01-31T06:07:12.468Z,102425.00
2023-01-31T06:09:40.578Z,102430.00
2023-01-31T06:12:12.176Z,102429.00
2023-01-31T06:14:38.754Z,102431.00
2023-01-31T06:17:05.404Z,102420.00
2023-01-31T06:19:32.227Z,102434.00
2023-01-31T06:21:58.802Z,102442.00
2023-01-31T06:24:25.440Z,102435.00
2023-01-31T06:26:52.034Z,102442.00
2023-01-31T06:29:18.739Z,102440.00
2023-01-31T06:31:45.823Z,102441.00
2023-01-31T06:34:12.591Z,102438.00
2023-01-31T06:36:39.295Z,102439.00
2023-01-31T06:39:05.884Z,102437.00
2023-01-31T06:41:32.988Z,102436.00
2023-01-31T06:43:59.756Z,102431.00
2023-01-31T06:46:26.525Z,102432.00
2023-01-31T06:48:53.332Z,102434.00
2023-01-31T06:51:20.006Z,102433.00
2023-01-31T06:53:46.750Z,102415.00
2023-01-31T06:56:13.492Z,102424.00
2023-01-31T06:58:40.177Z,102435.00
2023-01-31T07:01:11.761Z,102431.00
2023-01-31T07:03:39.088Z,102412.00
2023-01-31T07:06:07.146Z,102424.00
2023-01-31T07:08:36.073Z,102425.00
2023-01-31T07:11:04.503Z,102424.00
2023-01-31T07:13:31.477Z,102415.00
2023-01-31T07:15:58.416Z,102434.00
2023-01-31T07:18:25.132Z,102438.00
2023-01-31T07:20:51.888Z,102433.00
2023-01-31T07:23:19.268Z,102431.00
2023-01-31T07:25:46.060Z,102430.00
2023-01-31T07:28:13.070Z,102431.00
2023-01-31T07:30:40.288Z,102424.00
2023-01-31T07:33:06.956Z,102427.00
2023-01-31T07:35:33.618Z,102422.00
2023-01-31T07:38:00.264Z,102415.00
2023-01-31T07:40:26.870Z,102411.00
2023-01-31T07:42:58.695Z,102428.00
2023-01-31T07:45:25.878Z,102443.00
2023-01-31T07:47:53.032Z,102438.00
2023-01-31T07:50:20.160Z,102426.00
2023-01-31T07:52:49.169Z,102419.00
2023-01-31T07:55:19.235Z,102413.00
2023-01-31T07:57:46.083Z,102408.00
2023-01-31T08:00:33.229Z,102410.00
2023-01-31T08:03:18.546Z,102408.00
2023-01-31T08:05:46.652Z,102406.00
2023-01-31T08:08:13.772Z,102418.00
2023-01-31T08:10:40.734Z,102408.00
2023-01-31T08:13:07.363Z,102414.00
2023-01-31T08:15:34.311Z,102404.00
2023-01-31T08:18:02.081Z,102396.00
2023-01-31T08:20:29.556Z,102387.00
2023-01-31T08:22:58.776Z,102377.00
2023-01-31T08:25:29.286Z,102374.00
2023-01-31T08:27:59.854Z,102378.00
2023-01-31T08:30:27.542Z,102382.00
2023-01-31T08:32:54.448Z,102385.00
2023-01-31T08:35:21.338Z,102385.00
2023-01-31T08:37:48.793Z,102378.00
2023-01-31T08:40:15.510Z,102369.00
2023-01-31T08:42:42.658Z,102367.00
2023-01-31T08:45:10.448Z,102371.00
2023-01-31T08:47:37.401Z,102381.00
2023-01-31T08:50:05.143Z,102384.00
2023-01-31T08:52:35.531Z,102383.00
2023-01-31T08:55:02.324Z,102381.00
2023-01-31T08:57:30.218Z,102375.00
2023-01-31T08:59:57.013Z,102386.00
2023-01-31T09:02:23.692Z,102385.00
2023-01-31T09:04:50.309Z,102378.00
2023-01-31T09:07:21.660Z,102381.00
2023-01-31T09:09:49.549Z,102364.00
2023-01-31T09:12:16.143Z,102363.00
2023-01-31T09:14:42.793Z,102366.00
2023-01-31T09:17:10.791Z,102384.00
2023-01-31T09:19:38.734Z,102381.00
2023-01-31T09:22:05.501Z,102389.00
2023-01-31T09:24:32.257Z,102385.00
2023-01-31T09:26:58.953Z,102388.00
2023-01-31T09:29:26.201Z,102390.00
2023-01-31T09:31:53.126Z,102393.00
2023-01-31T09:34:20.473Z,102386.00
2023-01-31T09:36:47.204Z,102376.00
2023-01-31T09:39:14.435Z,102358.00
2023-01-31T09:41:57.707Z,102369.00
2023-01-31T09:44:32.333Z,102369.00
2023-01-31T09:47:09.046Z,102376.00
2023-01-31T09:49:48.784Z,102381.00
2023-01-31T09:52:15.505Z,102378.00
2023-01-31T09:54:42.531Z,102389.00
2023-01-31T09:57:12.187Z,102389.00
2023-01-31T09:59:44.913Z,102390.00
2023-01-31T10:02:29.957Z,102387.00
2023-01-31T10:05:05.587Z,102387.00
2023-01-31T10:07:54.358Z,102384.00
2023-01-31T10:10:45.439Z,102385.00
2023-01-31T10:13:24.734Z,102361.00
2023-01-31T10:15:56.864Z,102357.00
2023-01-31T10:18:28.014Z,102361.00
2023-01-31T10:21:05.290Z,102363.00
2023-01-31T10:23:40.402Z,102375.00
2023-01-31T10:26:14.471Z,102376.00
2023-01-31T10:29:02.563Z,102371.00
2023-01-31T10:31:56.484Z,102367.00
2023-01-31T10:34:31.775Z,102361.00
2023-01-31T10:37:05.403Z,102363.00
2023-01-31T10:39:39.484Z,102355.00
2023-01-31T10:42:15.167Z,102349.00
2023-01-31T10:44:58.797Z,102364.00
2023-01-31T10:47:33.549Z,102363.00
2023-01-31T10:50:02.083Z,102370.00
2023-01-31T10:52:50.086Z,102383.00
2023-01-31T10:55:29.568Z,102372.00
2023-01-31T10:57:57.896Z,102374.00
2023-01-31T11:00:29.560Z,102361.00
2023-01-31T11:02:58.533Z,102358.00
2023-01-31T11:05:29.075Z,102351.00
2023-01-31T11:08:01.214Z,102350.00
2023-01-31T11:10:30.565Z,102353.00
2023-01-31T11:13:09.769Z,102342.00
2023-01-31T11:15:39.575Z,102354.00
2023-01-31T11:18:07.286Z,102343.00
2023-01-31T11:20:44.400Z,102342.00
2023-01-31T11:23:18.006Z,102343.00
2023-01-31T11:25:49.736Z,102342.00
2023-01-31T11:28:32.295Z,102345.00
2023-01-31T11:31:00.197Z,102336.00
2023-01-31T11:33:57.182Z,102344.00
2023-01-31T11:36:24.417Z,102328.00
2023-01-31T11:38:51.483Z,102321.00
2023-01-31T11:41:35.287Z,102320.00
2023-01-31T11:44:20.326Z,102319.00
2023-01-31T11:46:48.660Z,102314.00
2023-01-31T11:49:29.701Z,102306.00
2023-01-31T11:51:59.163Z,102317.00
2023-01-31T11:54:30.055Z,102309.00
2023-01-31T11:56:57.724Z,102307.00
2023-01-31T11:59:29.086Z,102313.00
2023-01-31T12:01:58.728Z,102310.00
2023-01-31T12:04:42.546Z,102299.00
2023-01-31T12:07:24.155Z,102309.00
2023-01-31T12:09:51.297Z,102314.00
2023-01-31T12:12:22.435Z,102317.00
2023-01-31T12:14:49.125Z,102313.00
2023-01-31T12:17:17.336Z,102321.00
2023-01-31T12:19:50.934Z,102319.00
2023-01-31T12:22:34.251Z,102330.00
2023-01-31T12:25:13.197Z,102326.00
2023-01-31T12:28:01.822Z,102323.00
2023-01-31T12:30:39.779Z,102322.00
2023-01-31T12:33:24.570Z,102321.00
2023-01-31T12:36:25.770Z,102308.00
2023-01-31T12:39:27.241Z,102305.00
2023-01-31T12:42:24.946Z,102295.00
2023-01-31T12:44:57.645Z,102288.00
2023-01-31T12:47:45.844Z,102277.00
2023-01-31T12:50:35.007Z,102286.00
2023-01-31T12:53:40.158Z,102289.00
2023-01-31T12:56:22.958Z,102293.00
2023-01-31T12:59:15.376Z,102288.00
2023-01-31T13:02:07.968Z,102283.00
2023-01-31T13:04:45.180Z,102276.00
2023-01-31T13:07:37.594Z,102269.00
2023-01-31T13:10:15.487Z,102265.00
2023-01-31T13:12:42.609Z,102260.00
2023-01-31T13:15:26.631Z,102263.00
2023-01-31T13:18:00.188Z,102263.00
2023-01-31T13:20:36.361Z,102247.00
2023-01-31T13:23:10.674Z,102239.00
2023-01-31T13:25:39.015Z,102246.00
2023-01-31T13:28:15.424Z,102247.00
2023-01-31T13:30:51.948Z,102246.00
2023-01-31T13:33:25.113Z,102246.00
2023-01-31T13:36:01.500Z,102238.00
2023-01-31T13:38:36.115Z,102227.00
2023-01-31T13:41:05.370Z,102224.00
2023-01-31T13:43:32.065Z,102225.00
2023-01-31T13:46:04.101Z,102219.00
2023-01-31T13:48:53.105Z,102220.00
2023-01-31T13:51:35.828Z,102224.00
2023-01-31T13:54:21.280Z,102228.00
2023-01-31T13:56:59.852Z,102237.00
2023-01-31T13:59:30.987Z,102249.00
2023-01-31T14:02:01.083Z,102257.00
2023-01-31T14:04:39.159Z,102266.00
2023-01-31T14:07:06.807Z,102277.00
2023-01-31T14:09:36.478Z,102263.00
2023-01-31T14:12:15.703Z,102269.00
2023-01-31T14:14:46.940Z,102270.00
2023-01-31T14:17:28.684Z,102278.00
2023-01-31T14:19:55.453Z,102281.00
2023-01-31T14:22:40.202Z,102284.00
2023-01-31T14:25:09.668Z,102278.00
2023-01-31T14:27:36.252Z,102281.00
2023-01-31T14:30:05.864Z,102281.00
2023-01-31T14:32:35.508Z,102284.00
2023-01-31T14:35:27.931Z,102290.00
2023-01-31T14:38:06.632Z,102298.00
2023-01-31T14:40:56.406Z,102302.00
2023-01-31T14:43:25.698Z,102289.00
2023-01-31T14:46:07.973Z,102292.00
2023-01-31T14:48:46.322Z,102284.00
2023-01-31T14:51:51.228Z,102292.00
2023-01-31T14:54:43.691Z,102273.00
2023-01-31T14:57:24.820Z,102272.00
2023-01-31T15:00:01.117Z,102257.00
2023-01-31T15:02:33.990Z,102268.00
2023-01-31T15:05:03.669Z,102273.00
2023-01-31T15:07:30.648Z,102270.00
2023-01-31T15:09:58.082Z,102285.00
2023-01-31T15:12:53.539Z,102289.00
2023-01-31T15:15:34.168Z,102284.00
2023-01-31T15:18:05.244Z,102288.00
2023-01-31T15:20:47.252Z,102285.00
2023-01-31T15:23:23.769Z,102267.00
2023-01-31T15:25:52.245Z,102287.00
2023-01-31T15:28:28.445Z,102289.00
2023-01-31T15:30:59.100Z,102296.00
2023-01-31T15:33:29.225Z,102296.00
2023-01-31T15:36:03.421Z,102289.00
2023-01-31T15:38:30.018Z,102286.00
2023-01-31T15:41:22.458Z,102299.00
2023-01-31T15:43:51.761Z,102299.00
2023-01-31T15:46:30.644Z,102307.00
2023-01-31T15:48:58.392Z,102304.00
2023-01-31T15:51:26.306Z,102319.00
2023-01-31T15:54:07.017Z,102323.00
2023-01-31T15:56:40.526Z,102332.00
2023-01-31T15:59:18.375Z,102332.00
2023-01-31T16:01:50.491Z,102337.00
2023-01-31T16:04:17.139Z,102342.00
2023-01-31T16:06:46.329Z,102337.00
2023-01-31T16:09:27.300Z,102337.00
2023-01-31T16:11:54.488Z,102334.00
2023-01-31T16:14:23.007Z,102331.00
2023-01-31T16:16:52.685Z,102328.00
2023-01-31T16:19:27.956Z,102332.00
2023-01-31T16:21:55.999Z,102337.00
2023-01-31T16:24:23.485Z,102344.00
2023-01-31T16:27:08.963Z,102345.00
2023-01-31T16:29:45.130Z,102351.00
2023-01-31T16:32:32.384Z,102362.00
2023-01-31T16:35:08.158Z,102366.00
2023-01-31T16:37:38.945Z,102367.00
2023-01-31T16:40:22.589Z,102377.00
2023-01-31T16:42:49.502Z,102372.00
2023-01-31T16:45:29.743Z,102374.00
2023-01-31T16:48:11.914Z,102369.00
2023-01-31T16:50:43.210Z,102375.00
2023-01-31T16:53:29.103Z,102369.00
2023-01-31T16:56:13.852Z,102368.00
2023-01-31T16:58:45.612Z,102381.00
2023-01-31T17:01:31.068Z,102362.00
2023-01-31T17:04:02.058Z,102376.00
2023-01-31T17:06:29.074Z,102376.00
2023-01-31T17:08:55.710Z,102375.00
2023-01-31T17:11:40.882Z,102374.00
2023-01-31T17:14:08.775Z,102376.00
2023-01-31T17:16:35.405Z,102385.00
2023-01-31T17:19:02.024Z,102364.00
2023-01-31T17:21:29.243Z,102367.00
2023-01-31T17:23:55.874Z,102365.00
2023-01-31T17:26:23.660Z,102367.00
2023-01-31T17:29:00.869Z,102365.00
2023-01-31T17:31:29.688Z,102371.00
2023-01-31T17:33:57.034Z,102378.00
2023-01-31T17:36:23.926Z,102376.00
2023-01-31T17:38:52.032Z,102374.00
2023-01-31T17:41:21.113Z,102389.00
2023-01-31T17:43:47.950Z,102374.00
2023-01-31T17:46:18.039Z,102367.00
2023-01-31T17:48:45.235Z,102364.00
2023-01-31T17:51:12.234Z,102368.00
2023-01-31T17:53:48.787Z,102360.00
2023-01-31T17:56:17.353Z,102361.00
2023-01-31T17:58:43.968Z,102359.00
2023-01-31T18:01:13.953Z,102359.00
2023-01-31T18:03:41.778Z,102366.00
2023-01-31T18:06:09.436Z,102366.00
2023-01-31T18:08:36.352Z,102361.00
2023-01-31T18:11:14.969Z,102366.00
2023-01-31T18:13:41.943Z,102365.00
2023-01-31T18:16:12.093Z,102368.00
2023-01-31T18:18:40.653Z,102369.00
2023-01-31T18:21:17.490Z,102364.00
2023-01-31T18:23:48.572Z,102367.00
2023-01-31T18:26:16.383Z,102373.00
2023-01-31T18:28:43.423Z,102373.00
2023-01-31T18:31:13.685Z,102381.00
2023-01-31T18:33:42.254Z,102373.00
2023-01-31T18:36:14.547Z,102381.00
2023-01-31T18:38:45.412Z,102393.00
2023-01-31T18:41:18.243Z,102391.00
2023-01-31T18:43:46.060Z,102396.00
2023-01-31T18:46:13.049Z,102397.00
2023-01-31T18:48:40.542Z,102398.00
2023-01-31T18:51:08.932Z,102407.00
2023-01-31T18:53:38.106Z,102406.00
2023-01-31T18:56:13.188Z,102397.00
2023-01-31T18:58:41.587Z,102397.00
2023-01-31T19:01:17.527Z,102393.00
2023-01-31T19:03:46.546Z,102395.00
2023-01-31T19:06:18.736Z,102396.00
2023-01-31T19:08:50.091Z,102393.00
2023-01-31T19:11:19.008Z,102404.00
2023-01-31T19:13:46.039Z,102405.00
2023-01-31T19:16:18.926Z,102402.00
2023-01-31T19:18:45.707Z,102404.00
2023-01-31T19:21:18.328Z,102403.00
2023-01-31T19:23:45.986Z,102402.00
2023-01-31T19:26:14.769Z,102399.00
2023-01-31T19:28:42.222Z,102399.00
2023-01-31T19:31:12.210Z,102394.00
2023-01-31T19:33:40.180Z,102389.00
2023-01-31T19:36:18.118Z,102389.00
2023-01-31T19:38:44.986Z,102398.00
2023-01-31T19:41:14.249Z,102399.00
2023-01-31T19:43:41.345Z,102394.00
2023-01-31T19:46:08.565Z,102393.00
2023-01-31T19:48:35.235Z,102388.00
2023-01-31T19:51:16.643Z,102393.00
2023-01-31T19:53:46.385Z,102384.00
2023-01-31T19:56:14.312Z,102378.00
2023-01-31T19:58:41.227Z,102373.00
2023-01-31T20:01:13.430Z,102372.00
2023-01-31T20:03:40.098Z,102371.00
2023-01-31T20:06:09.282Z,102370.00
2023-01-31T20:08:36.975Z,102375.00
2023-01-31T20:11:05.952Z,102370.00
2023-01-31T20:13:32.748Z,102373.00
2023-01-31T20:16:00.361Z,102373.00
2023-01-31T20:18:27.535Z,102375.00
2023-01-31T20:20:54.765Z,102369.00
2023-01-31T20:23:21.362Z,102369.00
2023-01-31T20:25:51.722Z,102375.00
2023-01-31T20:28:19.766Z,102370.00
2023-01-31T20:30:47.167Z,102374.00
2023-01-31T20:33:15.148Z,102377.00
2023-01-31T20:35:42.313Z,102373.00
2023-01-31T20:38:09.717Z,102383.00
2023-01-31T20:40:36.754Z,102385.00
2023-01-31T20:43:03.928Z,102384.00
2023-01-31T20:45:31.561Z,102373.00
2023-01-31T20:47:59.063Z,102376.00
2023-01-31T20:50:27.255Z,102366.00
2023-01-31T20:52:55.470Z,102370.00
2023-01-31T20:55:23.574Z,102360.00
2023-01-31T20:57:51.396Z,102371.00
2023-01-31T21:00:19.887Z,102368.00
2023-01-31T21:02:47.362Z,102366.00
2023-01-31T21:05:15.298Z,102378.00
2023-01-31T21:07:42.089Z,102377.00
2023-01-31T21:10:09.555Z,102382.00
2023-01-31T21:12:36.239Z,102371.00
2023-01-31T21:15:03.640Z,102365.00
2023-01-31T21:17:39.635Z,102370.00
2023-01-31T21:20:08.006Z,102367.00
2023-01-31T21:22:34.873Z,102371.00
2023-01-31T21:25:01.613Z,102361.00
2023-01-31T21:27:28.383Z,102360.00
2023-01-31T21:29:55.105Z,102361.00
2023-01-31T21:32:21.736Z,102367.00
2023-01-31T21:34:48.611Z,102364.00
2023-01-31T21:37:15.285Z,102355.00
2023-01-31T21:39:41.917Z,102352.00
2023-01-31T21:42:16.273Z,102345.00
2023-01-31T21:44:44.070Z,102343.00
2023-01-31T21:47:12.468Z,102344.00
2023-01-31T21:49:39.483Z,102362.00
2023-01-31T21:52:06.703Z,102363.00
2023-01-31T21:54:33.778Z,102356.00
2023-01-31T21:57:00.414Z,102349.00
2023-01-31T21:59:27.131Z,102350.00
2023-01-31T22:01:53.864Z,102346.00
2023-01-31T22:04:21.053Z,102340.00
2023-01-31T22:06:50.529Z,102345.00
2023-01-31T22:09:18.008Z,102339.00
2023-01-31T22:11:46.847Z,102348.00
2023-01-31T22:14:15.642Z,102352.00
2023-01-31T22:16:42.339Z,102358.00
2023-01-31T22:19:11.720Z,102358.00
2023-01-31T22:21:38.800Z,102345.00
2023-01-31T22:24:07.736Z,102340.00
2023-01-31T22:26:42.671Z,102341.00
2023-01-31T22:29:11.843Z,102340.00
2023-01-31T22:31:39.021Z,102337.00
2023-01-31T22:34:06.482Z,102343.00
2023-01-31T22:36:34.241Z,102340.00
2023-01-31T22:39:01.196Z,102339.00
2023-01-31T22:41:27.909Z,102337.00
2023-01-31T22:43:55.100Z,102342.00
2023-01-31T22:46:27.380Z,102350.00
2023-01-31T22:48:54.817Z,102352.00
2023-01-31T22:51:24.589Z,102345.00
2023-01-31T22:53:51.240Z,102349.00
2023-01-31T22:56:20.741Z,102337.00
2023-01-31T22:58:48.309Z,102342.00
2023-01-31T23:01:16.484Z,102340.00
2023-01-31T23:03:43.286Z,102342.00
2023-01-31T23:06:11.057Z,102339.00
2023-01-31T23:08:38.412Z,102343.00
2023-01-31T23:11:08.250Z,102342.00
2023-01-31T23:13:35.824Z,102350.00
2023-01-31T23:16:03.874Z,102339.00
2023-01-31T23:18:30.515Z,102340.00
2023-01-31T23:21:06.612Z,102334.00
2023-01-31T23:23:33.750Z,102332.00
2023-01-31T23:26:00.427Z,102329.00
2023-01-31T23:28:27.284Z,102326.00
2023-01-31T23:30:53.981Z,102329.00
2023-01-31T23:33:20.721Z,102323.00
2023-01-31T23:35:48.513Z,102325.00
2023-01-31T23:38:15.226Z,102315.00
2023-01-31T23:40:41.827Z,102311.00
2023-01-31T23:43:09.351Z,102310.00
2023-01-31T23:45:36.091Z,102321.00
2023-01-31T23:48:02.702Z,102311.00
2023-01-31T23:50:29.308Z,102320.00
2023-01-31T23:52:55.985Z,102325.00
2023-01-31T23:55:22.916Z,102308.00
2023-01-31T23:57:50.436Z,102313.00
